createdAt,value
2019-03-15T00:00:44.529Z,98058.82
2019-03-15T00:03:13.690Z,98059.56
2019-03-15T00:05:43.365Z,98069.24
2019-03-15T00:08:12.790Z,98072.97
2019-03-15T00:10:41.977Z,98073.30
2019-03-15T00:13:12.458Z,98070.19
2019-03-15T00:15:41.791Z,98076.70
2019-03-15T00:18:10.955Z,98077.11
2019-03-15T00:20:40.462Z,98080.66
2019-03-15T00:23:09.666Z,98083.09
2019-03-15T00:25:39.526Z,98081.47
2019-03-15T00:28:09.393Z,98076.66
2019-03-15T00:30:38.557Z,98071.98
2019-03-15T00:33:08.104Z,98074.31
2019-03-15T00:35:37.260Z,98076.50
2019-03-15T00:38:06.792Z,98081.08
2019-03-15T00:40:35.974Z,98083.82
2019-03-15T00:43:05.730Z,98090.55
2019-03-15T00:45:35.178Z,98087.81
2019-03-15T00:48:05.033Z,98086.32
2019-03-15T00:50:34.574Z,98089.23
2019-03-15T00:53:04.058Z,98073.45
2019-03-15T00:55:33.362Z,98071.27
2019-03-15T00:58:03.820Z,98076.64
2019-03-15T01:00:33.434Z,98077.13
2019-03-15T01:03:02.771Z,98084.16
2019-03-15T01:05:32.187Z,98087.81
2019-03-15T01:08:01.391Z,98095.34
2019-03-15T01:10:31.393Z,98101.45
2019-03-15T01:13:01.352Z,98105.45
2019-03-15T01:15:30.856Z,98115.66
2019-03-15T01:18:00.044Z,98117.92
2019-03-15T01:20:29.977Z,98119.52
2019-03-15T01:22:59.189Z,98132.01
2019-03-15T01:25:28.344Z,98117.84
2019-03-15T01:27:58.127Z,98114.66
2019-03-15T01:30:27.501Z,98111.08
2019-03-15T01:32:56.988Z,98122.16
2019-03-15T01:35:26.148Z,98127.94
2019-03-15T01:37:55.348Z,98127.84
2019-03-15T01:40:24.519Z,98125.19
2019-03-15T01:42:53.728Z,98119.26
2019-03-15T01:45:22.919Z,98123.80
2019-03-15T01:47:52.386Z,98110.73
2019-03-15T01:50:21.858Z,98111.78
2019-03-15T01:52:51.013Z,98105.28
2019-03-15T01:55:20.469Z,98108.98
2019-03-15T01:57:49.639Z,98107.38
2019-03-15T02:00:19.121Z,98109.27
2019-03-15T02:02:48.583Z,98106.45
2019-03-15T02:05:18.180Z,98100.33
2019-03-15T02:07:47.359Z,98104.80
2019-03-15T02:10:16.544Z,98108.47
2019-03-15T02:12:45.814Z,98104.09
2019-03-15T02:15:15.017Z,98107.62
2019-03-15T02:17:44.434Z,98108.84
2019-03-15T02:20:13.743Z,98104.63
2019-03-15T02:22:42.889Z,98110.39
2019-03-15T02:25:12.085Z,98112.94
2019-03-15T02:27:41.621Z,98116.52
2019-03-15T02:30:11.276Z,98107.44
2019-03-15T02:32:40.459Z,98106.97
2019-03-15T02:35:09.990Z,98111.08
2019-03-15T02:37:39.143Z,98118.78
2019-03-15T02:40:08.604Z,98113.94
2019-03-15T02:42:37.774Z,98113.94
2019-03-15T02:45:07.184Z,98118.40
2019-03-15T02:47:36.731Z,98110.42
2019-03-15T02:50:06.127Z,98114.31
2019-03-15T02:52:35.317Z,98114.84
2019-03-15T02:55:04.609Z,98120.31
2019-03-15T02:57:35.466Z,98118.50
2019-03-15T03:00:05.701Z,98113.36
2019-03-15T03:02:35.221Z,98114.02
2019-03-15T03:05:04.532Z,98122.75
2019-03-15T03:07:34.484Z,98114.78
2019-03-15T03:10:04.022Z,98123.20
2019-03-15T03:12:34.626Z,98129.33
2019-03-15T03:15:04.130Z,98127.17
2019-03-15T03:17:33.315Z,98116.03
2019-03-15T03:20:02.481Z,98116.80
2019-03-15T03:22:31.657Z,98130.11
2019-03-15T03:25:01.185Z,98133.23
2019-03-15T03:27:30.990Z,98134.73
2019-03-15T03:30:00.589Z,98124.59
2019-03-15T03:32:30.066Z,98124.22
2019-03-15T03:35:00.082Z,98122.44
2019-03-15T03:37:29.255Z,98133.95
2019-03-15T03:39:58.790Z,98138.16
2019-03-15T03:42:28.288Z,98140.91
2019-03-15T03:44:57.440Z,98142.91
2019-03-15T03:47:26.909Z,98137.02
2019-03-15T03:49:56.050Z,98137.95
2019-03-15T03:52:25.519Z,98144.12
2019-03-15T03:54:55.020Z,98139.33
2019-03-15T03:57:24.219Z,98151.11
2019-03-15T03:59:53.654Z,98140.70
2019-03-15T04:02:22.936Z,98144.80
2019-03-15T04:04:52.082Z,98143.02
2019-03-15T04:07:21.646Z,98143.70
2019-03-15T04:09:51.331Z,98145.55
2019-03-15T04:12:21.336Z,98139.08
2019-03-15T04:14:51.666Z,98139.33
2019-03-15T04:17:20.862Z,98129.38
2019-03-15T04:19:50.548Z,98136.80
2019-03-15T04:22:19.894Z,98137.19
2019-03-15T04:24:49.042Z,98140.22
2019-03-15T04:27:20.390Z,98138.23
2019-03-15T04:29:49.555Z,98139.17
2019-03-15T04:32:18.754Z,98133.07
2019-03-15T04:34:47.906Z,98134.48
2019-03-15T04:37:17.178Z,98131.08
2019-03-15T04:39:46.613Z,98136.75
2019-03-15T04:42:16.566Z,98125.76
2019-03-15T04:44:45.756Z,98126.59
2019-03-15T04:47:14.952Z,98143.76
2019-03-15T04:49:44.502Z,98137.66
2019-03-15T04:52:13.654Z,98132.50
2019-03-15T04:54:42.847Z,98137.17
2019-03-15T04:57:12.026Z,98136.53
2019-03-15T04:59:41.495Z,98131.08
2019-03-15T05:02:10.664Z,98142.27
2019-03-15T05:04:40.441Z,98130.80
2019-03-15T05:07:09.623Z,98131.64
2019-03-15T05:09:38.803Z,98128.75
2019-03-15T05:12:07.955Z,98129.48
2019-03-15T05:14:37.141Z,98131.90
2019-03-15T05:17:06.372Z,98131.81
2019-03-15T05:19:36.356Z,98138.28
2019-03-15T05:22:05.628Z,98133.42
2019-03-15T05:24:34.811Z,98133.23
2019-03-15T05:27:04.103Z,98124.02
2019-03-15T05:29:33.788Z,98114.66
2019-03-15T05:32:03.243Z,98127.59
2019-03-15T05:34:32.418Z,98130.59
2019-03-15T05:37:01.596Z,98132.12
2019-03-15T05:39:30.821Z,98130.97
2019-03-15T05:41:59.970Z,98135.39
2019-03-15T05:44:29.500Z,98123.12
2019-03-15T05:46:58.699Z,98125.27
2019-03-15T05:49:28.656Z,98130.91
2019-03-15T05:51:58.158Z,98131.17
2019-03-15T05:54:27.354Z,98131.44
2019-03-15T05:56:56.516Z,98135.02
2019-03-15T05:59:26.239Z,98135.86
2019-03-15T06:01:55.439Z,98143.10
2019-03-15T06:04:24.618Z,98143.17
2019-03-15T06:06:54.078Z,98142.91
2019-03-15T06:09:23.223Z,98144.86
2019-03-15T06:11:52.763Z,98138.53
2019-03-15T06:14:21.929Z,98141.69
2019-03-15T06:16:51.981Z,98140.73
2019-03-15T06:19:21.309Z,98139.58
2019-03-15T06:21:50.858Z,98130.09
2019-03-15T06:24:20.619Z,98124.47
2019-03-15T06:26:51.497Z,98125.36
2019-03-15T06:29:21.825Z,98128.66
2019-03-15T06:31:50.994Z,98117.00
2019-03-15T06:34:20.413Z,98117.19
2019-03-15T06:36:49.987Z,98110.78
2019-03-15T06:39:19.188Z,98113.34
2019-03-15T06:41:48.367Z,98107.50
2019-03-15T06:44:23.032Z,98105.34
2019-03-15T06:46:52.297Z,98097.61
2019-03-15T06:49:21.500Z,98089.13
2019-03-15T06:51:51.098Z,98088.50
2019-03-15T06:54:23.249Z,98081.71
2019-03-15T06:56:52.488Z,98082.00
2019-03-15T06:59:21.653Z,98078.42
2019-03-15T07:01:50.933Z,98086.58
2019-03-15T07:04:22.651Z,98080.00
2019-03-15T07:06:51.836Z,98084.31
2019-03-15T07:09:21.028Z,98090.42
2019-03-15T07:11:50.475Z,98083.22
2019-03-15T07:14:19.676Z,98083.58
2019-03-15T07:16:49.437Z,98077.95
2019-03-15T07:19:27.361Z,98066.00
2019-03-15T07:21:49.912Z,98078.42
2019-03-15T07:24:25.458Z,98079.19
2019-03-15T07:26:51.651Z,98062.19
2019-03-15T07:29:23.165Z,98069.71
2019-03-15T07:31:52.356Z,98067.73
2019-03-15T07:34:21.676Z,98064.23
2019-03-15T07:36:51.597Z,98062.63
2019-03-15T07:39:21.205Z,98067.55
2019-03-15T07:41:50.392Z,98071.88
2019-03-15T07:44:20.064Z,98076.30
2019-03-15T07:46:51.047Z,98074.61
2019-03-15T07:49:20.756Z,98062.30
2019-03-15T07:51:50.828Z,98059.30
2019-03-15T07:54:20.051Z,98064.23
2019-03-15T07:56:49.543Z,98067.61
2019-03-15T07:59:22.796Z,98084.79
2019-03-15T08:01:52.979Z,98074.00
2019-03-15T08:04:22.641Z,98071.63
2019-03-15T08:06:52.675Z,98060.95
2019-03-15T08:09:22.804Z,98055.39
2019-03-15T08:11:53.611Z,98075.61
2019-03-15T08:14:22.842Z,98064.82
2019-03-15T08:16:52.316Z,98077.13
2019-03-15T08:19:22.317Z,98067.92
2019-03-15T08:21:52.297Z,98069.88
2019-03-15T08:24:21.774Z,98067.94
2019-03-15T08:26:50.946Z,98067.71
2019-03-15T08:29:21.370Z,98061.18
2019-03-15T08:31:52.429Z,98061.72
2019-03-15T08:34:21.921Z,98061.82
2019-03-15T08:36:56.806Z,98058.95
2019-03-15T08:39:26.357Z,98063.52
2019-03-15T08:41:55.912Z,98051.67
2019-03-15T08:44:27.803Z,98044.59
2019-03-15T08:46:57.341Z,98057.41
2019-03-15T08:49:26.563Z,98051.53
2019-03-15T08:52:03.670Z,98050.30
2019-03-15T08:54:29.751Z,98053.36
2019-03-15T08:56:58.930Z,98043.20
2019-03-15T08:59:29.610Z,98039.25
2019-03-15T09:01:58.781Z,98039.25
2019-03-15T09:04:29.112Z,98041.11
2019-03-15T09:06:58.333Z,98040.05
2019-03-15T09:09:32.238Z,98037.86
2019-03-15T09:12:02.999Z,98030.91
2019-03-15T09:14:33.376Z,98032.16
2019-03-15T09:17:02.894Z,98027.91
2019-03-15T09:19:32.059Z,98024.44
2019-03-15T09:22:01.605Z,98024.22
2019-03-15T09:24:31.968Z,98034.53
2019-03-15T09:27:01.158Z,98020.34
2019-03-15T09:29:30.782Z,98036.28
2019-03-15T09:32:20.571Z,98024.11
2019-03-15T09:34:50.049Z,98031.49
2019-03-15T09:37:19.274Z,98028.80
2019-03-15T09:39:48.460Z,98026.13
2019-03-15T09:42:18.150Z,98026.80
2019-03-15T09:44:47.575Z,98022.50
2019-03-15T09:47:16.795Z,98012.66
2019-03-15T09:49:46.631Z,98009.27
2019-03-15T09:52:15.928Z,97996.09
2019-03-15T09:54:45.431Z,98003.25
2019-03-15T09:57:18.349Z,98011.75
2019-03-15T09:59:47.645Z,98024.92
2019-03-15T10:02:29.344Z,98027.42
2019-03-15T10:04:47.835Z,98020.54
2019-03-15T10:07:18.154Z,98020.52
2019-03-15T10:09:48.259Z,98019.85
2019-03-15T10:12:17.463Z,98025.88
2019-03-15T10:14:46.645Z,98012.70
2019-03-15T10:17:16.170Z,98008.99
2019-03-15T10:19:47.475Z,98010.96
2019-03-15T10:22:19.952Z,98009.51
2019-03-15T10:24:49.182Z,98004.08
2019-03-15T10:27:18.485Z,98007.67
2019-03-15T10:29:47.701Z,98010.45
2019-03-15T10:32:17.448Z,98000.20
2019-03-15T10:34:47.124Z,97994.27
2019-03-15T10:37:18.594Z,97992.00
2019-03-15T10:39:47.886Z,97984.31
2019-03-15T10:42:17.316Z,97994.16
2019-03-15T10:44:48.138Z,97982.09
2019-03-15T10:47:18.187Z,97981.67
2019-03-15T10:49:47.984Z,97986.34
2019-03-15T10:52:17.136Z,97986.23
2019-03-15T10:54:46.662Z,97992.09
2019-03-15T10:57:18.107Z,97982.31
2019-03-15T10:59:47.292Z,97983.55
2019-03-15T11:02:19.277Z,97982.16
2019-03-15T11:04:48.479Z,97971.40
2019-03-15T11:07:17.652Z,97973.75
2019-03-15T11:09:47.089Z,97980.58
2019-03-15T11:12:17.603Z,97979.32
2019-03-15T11:14:47.612Z,97982.48
2019-03-15T11:17:17.054Z,97978.18
2019-03-15T11:19:46.576Z,97967.75
2019-03-15T11:22:20.012Z,97971.45
2019-03-15T11:24:49.510Z,97978.42
2019-03-15T11:27:19.073Z,97995.60
2019-03-15T11:29:48.577Z,98002.23
2019-03-15T11:32:18.372Z,97990.80
2019-03-15T11:34:47.559Z,97991.29
2019-03-15T11:37:17.100Z,97995.50
2019-03-15T11:39:47.441Z,97980.33
2019-03-15T11:42:16.944Z,97978.05
2019-03-15T11:44:46.918Z,97974.83
2019-03-15T11:47:16.856Z,97981.28
2019-03-15T11:49:48.071Z,97975.65
2019-03-15T11:52:18.659Z,97969.98
2019-03-15T11:54:49.803Z,97969.88
2019-03-15T11:57:26.304Z,97962.76
2019-03-15T11:59:56.068Z,97966.72
2019-03-15T12:02:25.835Z,97959.76
2019-03-15T12:04:55.513Z,97960.47
2019-03-15T12:07:25.760Z,97959.72
2019-03-15T12:10:00.437Z,97971.98
2019-03-15T12:12:29.594Z,97973.40
2019-03-15T12:15:00.307Z,97979.30
2019-03-15T12:17:33.378Z,97993.02
2019-03-15T12:20:03.233Z,97976.78
2019-03-15T12:22:33.276Z,97965.09
2019-03-15T12:25:06.513Z,97976.03
2019-03-15T12:27:39.998Z,97967.34
2019-03-15T12:30:13.863Z,97991.64
2019-03-15T12:32:45.543Z,97993.32
2019-03-15T12:35:16.597Z,97978.14
2019-03-15T12:37:57.060Z,97982.11
2019-03-15T12:40:28.658Z,97981.58
2019-03-15T12:43:01.208Z,97985.81
2019-03-15T12:45:31.869Z,97984.83
2019-03-15T12:48:04.454Z,97978.30
2019-03-15T12:50:33.791Z,97978.08
2019-03-15T12:53:04.143Z,97970.80
2019-03-15T12:55:34.891Z,97981.29
2019-03-15T12:58:04.112Z,97966.32
2019-03-15T13:00:35.068Z,97962.55
2019-03-15T13:03:05.206Z,97953.77
2019-03-15T13:05:34.995Z,97967.23
2019-03-15T13:08:08.359Z,97953.69
2019-03-15T13:10:37.612Z,97958.98
2019-03-15T13:13:07.425Z,97966.72
2019-03-15T13:15:39.514Z,97947.09
2019-03-15T13:18:16.961Z,97952.94
2019-03-15T13:20:52.595Z,97964.23
2019-03-15T13:23:23.790Z,97966.48
2019-03-15T13:25:54.725Z,97952.84
2019-03-15T13:28:25.817Z,97967.69
2019-03-15T13:30:55.890Z,97977.62
2019-03-15T13:33:26.220Z,97976.52
2019-03-15T13:35:55.793Z,97970.38
2019-03-15T13:38:25.277Z,97982.03
2019-03-15T13:40:55.627Z,97962.11
2019-03-15T13:43:25.416Z,97967.63
2019-03-15T13:45:57.770Z,97959.31
2019-03-15T13:48:31.251Z,97967.30
2019-03-15T13:51:00.687Z,97957.32
2019-03-15T13:53:31.430Z,97948.43
2019-03-15T13:56:00.691Z,97967.80
2019-03-15T13:58:29.899Z,97960.95
2019-03-15T14:00:59.923Z,97962.06
2019-03-15T14:03:34.473Z,97970.73
2019-03-15T14:06:04.982Z,97965.28
2019-03-15T14:08:35.256Z,97967.27
2019-03-15T14:11:04.962Z,97953.07
2019-03-15T14:13:41.144Z,97964.89
2019-03-15T14:16:13.776Z,97970.09
2019-03-15T14:18:43.547Z,97969.47
2019-03-15T14:21:13.208Z,97964.86
2019-03-15T14:23:42.699Z,97972.47
2019-03-15T14:26:12.382Z,97971.77
2019-03-15T14:28:43.202Z,97975.58
2019-03-15T14:31:13.623Z,97990.13
2019-03-15T14:33:43.336Z,97978.12
2019-03-15T14:36:13.880Z,97967.38
2019-03-15T14:38:43.556Z,97961.02
2019-03-15T14:41:15.534Z,97973.17
2019-03-15T14:43:45.639Z,97965.28
2019-03-15T14:46:14.882Z,97963.12
2019-03-15T14:48:44.509Z,97968.56
2019-03-15T14:51:14.781Z,97963.81
2019-03-15T14:53:44.299Z,97960.47
2019-03-15T14:56:13.499Z,97968.35
2019-03-15T14:58:44.067Z,97972.47
2019-03-15T15:01:13.293Z,97961.02
2019-03-15T15:03:43.786Z,97950.96
2019-03-15T15:06:14.062Z,97962.62
2019-03-15T15:08:43.604Z,97940.00
2019-03-15T15:11:13.660Z,97952.77
2019-03-15T15:13:43.165Z,97942.31
2019-03-15T15:16:12.394Z,97923.19
2019-03-15T15:18:42.482Z,97943.64
2019-03-15T15:21:13.563Z,97936.42
2019-03-15T15:23:43.619Z,97945.88
2019-03-15T15:26:13.513Z,97954.53
2019-03-15T15:28:45.434Z,97954.95
2019-03-15T15:31:15.394Z,97951.05
2019-03-15T15:33:45.903Z,97959.56
2019-03-15T15:36:15.843Z,97949.20
2019-03-15T15:38:45.320Z,97955.05
2019-03-15T15:41:15.907Z,97952.43
2019-03-15T15:43:45.086Z,97956.06
2019-03-15T15:46:17.244Z,97963.45
2019-03-15T15:48:46.456Z,97984.11
2019-03-15T15:51:15.665Z,97981.59
2019-03-15T15:53:45.375Z,97979.89
2019-03-15T15:56:14.622Z,97979.48
2019-03-15T15:58:44.059Z,97976.50
2019-03-15T16:01:14.552Z,97963.25
2019-03-15T16:03:44.748Z,97970.96
2019-03-15T16:06:15.928Z,97971.45
2019-03-15T16:08:46.191Z,97969.63
2019-03-15T16:11:15.677Z,97964.27
2019-03-15T16:13:45.370Z,97959.94
2019-03-15T16:16:16.405Z,97971.80
2019-03-15T16:18:47.656Z,97956.16
2019-03-15T16:21:16.860Z,97954.42
2019-03-15T16:23:49.428Z,97959.66
2019-03-15T16:26:18.660Z,97959.66
2019-03-15T16:28:48.631Z,97956.10
2019-03-15T16:31:18.649Z,97944.63
2019-03-15T16:33:48.814Z,97956.66
2019-03-15T16:36:18.048Z,97945.77
2019-03-15T16:38:49.827Z,97966.66
2019-03-15T16:41:19.040Z,97953.41
2019-03-15T16:43:48.845Z,97960.17
2019-03-15T16:46:18.058Z,97958.28
2019-03-15T16:48:47.251Z,97958.17
2019-03-15T16:51:19.898Z,97960.27
2019-03-15T16:53:51.210Z,97971.70
2019-03-15T16:56:20.470Z,97967.67
2019-03-15T16:58:50.727Z,97963.89
2019-03-15T17:01:20.470Z,97971.48
2019-03-15T17:03:49.948Z,97975.47
2019-03-15T17:06:19.855Z,97965.21
2019-03-15T17:08:50.374Z,97969.19
2019-03-15T17:11:20.257Z,97972.70
2019-03-15T17:13:51.584Z,97965.89
2019-03-15T17:16:21.040Z,97971.92
2019-03-15T17:18:50.269Z,97969.86
2019-03-15T17:21:19.714Z,97958.62
2019-03-15T17:23:49.178Z,97967.89
2019-03-15T17:26:18.632Z,97954.99
2019-03-15T17:28:58.006Z,97955.50
2019-03-15T17:31:18.725Z,97955.37
2019-03-15T17:33:47.920Z,97953.48
2019-03-15T17:36:18.645Z,97971.39
2019-03-15T17:38:49.316Z,97958.91
2019-03-15T17:41:18.483Z,97968.88
2019-03-15T17:43:47.943Z,97977.75
2019-03-15T17:46:17.642Z,97968.13
2019-03-15T17:48:47.126Z,97974.05
2019-03-15T17:51:16.584Z,97970.91
2019-03-15T17:53:45.796Z,97969.23
2019-03-15T17:56:15.327Z,97975.88
2019-03-15T17:58:44.543Z,97967.23
2019-03-15T18:01:13.979Z,97968.91
2019-03-15T18:03:47.352Z,97959.28
2019-03-15T18:06:17.790Z,97964.84
2019-03-15T18:08:50.683Z,97974.60
2019-03-15T18:11:21.455Z,97989.66
2019-03-15T18:13:52.740Z,97989.96
2019-03-15T18:16:23.352Z,97981.92
2019-03-15T18:18:57.538Z,97994.53
2019-03-15T18:21:28.492Z,97995.74
2019-03-15T18:23:59.345Z,98009.39
2019-03-15T18:26:29.551Z,97993.45
2019-03-15T18:28:59.005Z,98014.33
2019-03-15T18:31:28.978Z,98013.58
2019-03-15T18:33:59.365Z,98019.09
2019-03-15T18:36:28.548Z,98007.56
2019-03-15T18:39:01.103Z,97998.66
2019-03-15T18:41:31.564Z,97997.55
2019-03-15T18:44:02.159Z,97995.66
2019-03-15T18:46:31.537Z,98008.91
2019-03-15T18:49:02.092Z,98008.81
2019-03-15T18:51:32.856Z,98004.70
2019-03-15T18:54:02.701Z,98011.70
2019-03-15T18:56:32.507Z,98013.06
2019-03-15T18:59:02.619Z,98026.40
2019-03-15T19:01:34.399Z,98029.89
2019-03-15T19:04:03.864Z,98024.45
2019-03-15T19:06:33.444Z,98047.32
2019-03-15T19:09:03.651Z,98049.13
2019-03-15T19:11:34.767Z,98054.06
2019-03-15T19:14:04.126Z,98050.45
2019-03-15T19:16:34.729Z,98061.31
2019-03-15T19:19:05.267Z,98057.81
2019-03-15T19:21:34.817Z,98053.85
2019-03-15T19:24:06.648Z,98047.10
2019-03-15T19:26:36.193Z,98059.23
2019-03-15T19:29:05.602Z,98060.33
2019-03-15T19:31:35.123Z,98061.78
2019-03-15T19:34:04.293Z,98060.70
2019-03-15T19:36:34.246Z,98070.23
2019-03-15T19:39:04.268Z,98066.03
2019-03-15T19:41:34.063Z,98084.80
2019-03-15T19:44:03.573Z,98073.36
2019-03-15T19:46:33.476Z,98080.11
2019-03-15T19:49:04.516Z,98081.88
2019-03-15T19:51:35.658Z,98076.36
2019-03-15T19:54:05.753Z,98079.50
2019-03-15T19:56:35.927Z,98093.27
2019-03-15T19:59:07.487Z,98097.81
2019-03-15T20:01:36.985Z,98122.61
2019-03-15T20:04:06.288Z,98153.65
2019-03-15T20:06:36.488Z,98153.65
2019-03-15T20:09:08.758Z,98165.47
2019-03-15T20:11:38.061Z,98167.28
2019-03-15T20:14:07.660Z,98165.00
2019-03-15T20:16:36.864Z,98177.63
2019-03-15T20:19:06.105Z,98178.00
2019-03-15T20:21:35.790Z,98189.67
2019-03-15T20:24:05.589Z,98181.73
2019-03-15T20:26:36.699Z,98170.42
2019-03-15T20:29:05.909Z,98175.72
2019-03-15T20:31:35.110Z,98180.78
2019-03-15T20:34:04.488Z,98180.53
2019-03-15T20:36:33.661Z,98193.41
2019-03-15T20:39:03.097Z,98197.14
2019-03-15T20:41:32.282Z,98184.04
2019-03-15T20:44:01.503Z,98190.05
2019-03-15T20:46:36.107Z,98194.48
2019-03-15T20:49:06.106Z,98184.98
2019-03-15T20:51:35.378Z,98203.02
2019-03-15T20:54:04.676Z,98204.36
2019-03-15T20:56:34.495Z,98213.12
2019-03-15T20:59:03.771Z,98210.74
2019-03-15T21:01:32.941Z,98219.65
2019-03-15T21:04:02.837Z,98214.09
2019-03-15T21:06:33.007Z,98222.03
2019-03-15T21:09:02.670Z,98239.13
2019-03-15T21:11:32.470Z,98249.95
2019-03-15T21:14:01.701Z,98251.95
2019-03-15T21:16:30.937Z,98257.25
2019-03-15T21:19:00.590Z,98259.75
2019-03-15T21:21:32.270Z,98259.37
2019-03-15T21:24:01.791Z,98264.52
2019-03-15T21:26:31.666Z,98279.50
2019-03-15T21:29:01.522Z,98277.55
2019-03-15T21:31:32.424Z,98281.03
2019-03-15T21:34:01.614Z,98290.97
2019-03-15T21:36:32.150Z,98299.58
2019-03-15T21:39:02.218Z,98306.78
2019-03-15T21:41:32.273Z,98302.52
2019-03-15T21:44:01.482Z,98313.69
2019-03-15T21:46:30.977Z,98317.02
2019-03-15T21:49:00.190Z,98316.88
2019-03-15T21:51:29.832Z,98322.76
2019-03-15T21:53:59.404Z,98325.97
2019-03-15T21:56:28.604Z,98329.91
2019-03-15T21:58:57.815Z,98346.89
2019-03-15T22:01:27.892Z,98348.33
2019-03-15T22:03:57.116Z,98339.73
2019-03-15T22:06:28.430Z,98342.91
2019-03-15T22:08:57.986Z,98347.17
2019-03-15T22:11:27.790Z,98344.14
2019-03-15T22:13:57.505Z,98347.26
2019-03-15T22:16:27.577Z,98352.25
2019-03-15T22:18:57.166Z,98336.27
2019-03-15T22:21:26.942Z,98344.67
2019-03-15T22:23:56.388Z,98327.30
2019-03-15T22:26:26.059Z,98324.72
2019-03-15T22:28:55.635Z,98329.67
2019-03-15T22:31:25.938Z,98336.49
2019-03-15T22:34:04.547Z,98331.69
2019-03-15T22:36:33.802Z,98340.19
2019-03-15T22:39:04.620Z,98345.58
2019-03-15T22:41:35.883Z,98351.41
2019-03-15T22:44:05.199Z,98355.30
2019-03-15T22:46:35.254Z,98367.86
2019-03-15T22:49:07.281Z,98375.92
2019-03-15T22:51:36.846Z,98383.29
2019-03-15T22:54:06.575Z,98383.29
2019-03-15T22:56:35.855Z,98383.47
2019-03-15T22:59:06.145Z,98373.58
2019-03-15T23:01:35.340Z,98381.31
2019-03-15T23:04:04.509Z,98385.27
2019-03-15T23:06:33.698Z,98393.58
2019-03-15T23:09:03.334Z,98388.89
2019-03-15T23:11:33.845Z,98391.53
2019-03-15T23:14:03.247Z,98389.15
2019-03-15T23:16:33.149Z,98397.17
2019-03-15T23:19:02.309Z,98399.23
2019-03-15T23:21:32.044Z,98399.84
2019-03-15T23:24:01.197Z,98399.44
2019-03-15T23:26:30.648Z,98395.41
2019-03-15T23:28:59.828Z,98403.06
2019-03-15T23:31:29.021Z,98398.36
2019-03-15T23:33:58.734Z,98401.00
2019-03-15T23:36:28.693Z,98391.77
2019-03-15T23:38:59.642Z,98397.26
2019-03-15T23:41:29.162Z,98400.55
2019-03-15T23:43:58.784Z,98405.72
2019-03-15T23:46:27.927Z,98415.16
2019-03-15T23:48:58.062Z,98415.53
2019-03-15T23:51:27.246Z,98426.40
2019-03-15T23:53:57.207Z,98412.91
2019-03-15T23:56:26.720Z,98412.62
2019-03-15T23:58:56.495Z,98426.20
